Time,TemperatureF,DewpointF,PressureIn,WindDirection,WindDirectionDegrees,WindSpeedMPH,WindSpeedGustMPH,Humidity,HourlyPrecipIn,Conditions,Clouds,dailyrainin,SoftwareType,DateUTC
2013-03-20 00:01:00,32.5,32.0,29.61,East,101,24.0,44.0,98,0.03,,,0.00,weatherlink.com 1.10,2013-03-20 04:01:00,
2013-03-20 00:16:00,32.2,32.0,29.62,SE,146,17.0,32.0,98,0.02,,,0.00,weatherlink.com 1.10,2013-03-20 04:16:00,
2013-03-20 00:31:00,31.7,31.0,29.63,SSE,159,25.0,32.0,98,0.02,,,0.00,weatherlink.com 1.10,2013-03-20 04:31:00,
2013-03-20 00:46:00,31.4,31.0,29.64,SSE,150,25.0,31.0,98,0.02,,,0.00,weatherlink.com 1.10,2013-03-20 04:46:00,
2013-03-20 01:01:00,31.4,31.0,29.65,SE,141,23.0,28.0,98,0.00,,,0.00,weatherlink.com 1.10,2013-03-20 05:01:00,
2013-03-20 01:16:00,31.2,31.0,29.66,ESE,116,21.0,29.0,97,0.00,,,0.00,weatherlink.com 1.10,2013-03-20 05:16:00,
2013-03-20 01:31:00,30.9,30.0,29.66,SW,229,11.0,27.0,95,0.00,,,0.00,weatherlink.com 1.10,2013-03-20 05:31:00,
2013-03-20 01:46:00,30.7,30.0,29.64,SSW,193,12.0,27.0,95,0.00,,,0.00,weatherlink.com 1.10,2013-03-20 05:46:00,
2013-03-20 02:01:00,30.3,29.0,29.67,SSE,155,11.0,24.0,95,0.00,,,0.00,weatherlink.com 1.10,2013-03-20 06:01:00,
2013-03-20 02:16:00,30.4,29.0,29.68,SE,139,11.0,20.0,95,0.00,,,0.00,weatherlink.com 1.10,2013-03-20 06:16:00,
2013-03-20 02:31:00,30.3,29.0,29.69,South,179,16.0,21.0,94,0.00,,,0.00,weatherlink.com 1.10,2013-03-20 06:31:00,
2013-03-20 02:46:00,30.5,29.0,29.68,South,176,17.0,24.0,94,0.00,,,0.00,weatherlink.com 1.10,2013-03-20 06:46:00,
2013-03-20 03:01:00,30.5,29.0,29.69,SE,140,14.0,21.0,93,0.00,,,0.00,weatherlink.com 1.10,2013-03-20 07:01:00,
2013-03-20 03:16:00,30.6,29.0,29.69,SE,145,15.0,21.0,93,0.00,,,0.00,weatherlink.com 1.10,2013-03-20 07:16:00,
2013-03-20 03:47:00,30.8,29.0,29.70,ESE,110,10.0,24.0,93,0.00,,,0.00,weatherlink.com 1.10,2013-03-20 07:47:00,
2013-03-20 04:02:00,30.5,28.0,29.70,SE,139,17.0,25.0,91,0.00,,,0.00,weatherlink.com 1.10,2013-03-20 08:02:00,
2013-03-20 04:17:00,30.4,28.0,29.71,SSE,160,6.0,24.0,92,0.00,,,0.00,weatherlink.com 1.10,2013-03-20 08:17:00,
2013-03-20 04:32:00,30.4,28.0,29.71,SE,132,13.0,20.0,92,0.00,,,0.00,weatherlink.com 1.10,2013-03-20 08:32:00,
2013-03-20 04:47:00,30.2,28.0,29.71,SSE,155,8.0,21.0,91,0.00,,,0.00,weatherlink.com 1.10,2013-03-20 08:47:00,
2013-03-20 05:02:00,30.2,28.0,29.71,SE,133,10.0,22.0,91,0.00,,,0.00,weatherlink.com 1.10,2013-03-20 09:02:00,
2013-03-20 05:17:00,30.3,28.0,29.72,SE,146,10.0,22.0,91,0.00,,,0.00,weatherlink.com 1.10,2013-03-20 09:17:00,
2013-03-20 05:32:00,30.5,28.0,29.72,SE,130,11.0,22.0,90,0.00,,,0.00,weatherlink.com 1.10,2013-03-20 09:32:00,
2013-03-20 05:47:00,31.0,28.0,29.73,ESE,103,7.0,22.0,89,0.00,,,0.00,weatherlink.com 1.10,2013-03-20 09:47:00,
2013-03-20 06:02:00,31.0,27.0,29.73,SSE,167,19.0,28.0,86,0.00,,,0.00,weatherlink.com 1.10,2013-03-20 10:02:00,
2013-03-20 06:17:00,31.3,28.0,29.73,SE,131,19.0,24.0,86,0.00,,,0.00,weatherlink.com 1.10,2013-03-20 10:17:00,
2013-03-20 06:32:00,31.6,27.0,29.73,ESE,117,21.0,28.0,83,0.00,,,0.00,weatherlink.com 1.10,2013-03-20 10:32:00,
2013-03-20 06:47:00,31.3,27.0,29.73,ENE,77,11.0,23.0,83,0.00,,,0.00,weatherlink.com 1.10,2013-03-20 10:47:00,
2013-03-20 07:02:00,31.2,26.0,29.73,SE,127,17.0,23.0,81,0.00,,,0.00,weatherlink.com 1.10,2013-03-20 11:02:00,
2013-03-20 07:17:00,31.6,26.0,29.72,SE,127,12.0,29.0,79,0.00,,,0.00,weatherlink.com 1.10,2013-03-20 11:17:00,
2013-03-20 07:32:00,31.9,26.0,29.73,SE,125,21.0,25.0,79,0.00,,,0.00,weatherlink.com 1.10,2013-03-20 11:32:00,
2013-03-20 07:47:00,32.1,26.0,29.74,East,86,8.0,27.0,79,0.00,,,0.00,weatherlink.com 1.10,2013-03-20 11:47:00,
2013-03-20 08:02:00,32.2,26.0,29.74,ENE,64,15.0,25.0,79,0.00,,,0.00,weatherlink.com 1.10,2013-03-20 12:02:00,
2013-03-20 08:17:00,32.2,26.0,29.75,South,172,15.0,25.0,79,0.00,,,0.00,weatherlink.com 1.10,2013-03-20 12:17:00,
2013-03-20 08:32:00,32.4,26.0,29.74,ESE,103,11.0,23.0,78,0.00,,,0.00,weatherlink.com 1.10,2013-03-20 12:32:00,
2013-03-20 08:47:00,32.4,26.0,29.75,ESE,120,16.0,24.0,76,0.00,,,0.00,weatherlink.com 1.10,2013-03-20 12:47:00,
2013-03-20 09:02:00,32.7,26.0,29.75,SE,133,19.0,26.0,77,0.00,,,0.00,weatherlink.com 1.10,2013-03-20 13:02:00,
2013-03-20 09:17:00,33.1,26.0,29.75,South,188,14.0,29.0,76,0.00,,,0.00,weatherlink.com 1.10,2013-03-20 13:17:00,
2013-03-20 09:32:00,33.2,26.0,29.75,SE,138,9.0,24.0,76,0.00,,,0.00,weatherlink.com 1.10,2013-03-20 13:32:00,
2013-03-20 09:47:00,33.5,27.0,29.75,South,170,17.0,26.0,77,0.02,,,0.02,weatherlink.com 1.10,2013-03-20 13:47:00,
2013-03-20 10:02:00,34.0,29.0,29.76,SE,128,20.0,20.0,82,0.02,,,0.02,weatherlink.com 1.10,2013-03-20 14:02:00,
2013-03-20 10:17:00,34.5,31.0,29.75,East,92,17.0,22.0,85,0.02,,,0.02,weatherlink.com 1.10,2013-03-20 14:17:00,
2013-03-20 10:33:00,34.9,26.0,29.75,East,96,14.0,25.0,71,0.02,,,0.02,weatherlink.com 1.10,2013-03-20 14:33:00,
2013-03-20 10:47:00,35.3,25.0,29.75,East,79,13.0,22.0,65,0.00,,,0.02,weatherlink.com 1.10,2013-03-20 14:47:00,
2013-03-20 11:02:00,35.9,26.0,29.75,SE,146,8.0,20.0,67,0.00,,,0.02,weatherlink.com 1.10,2013-03-20 15:02:00,
2013-03-20 11:17:00,35.9,24.0,29.76,SE,138,16.0,18.0,63,0.00,,,0.02,weatherlink.com 1.10,2013-03-20 15:17:00,
2013-03-20 11:33:00,36.3,25.0,29.76,SE,134,12.0,22.0,65,0.00,,,0.02,weatherlink.com 1.10,2013-03-20 15:33:00,
2013-03-20 11:48:00,35.7,25.0,29.76,East,89,14.0,20.0,64,0.00,,,0.02,weatherlink.com 1.10,2013-03-20 15:48:00,
2013-03-20 12:03:00,36.8,24.0,29.75,South,169,4.0,18.0,61,0.00,,,0.02,weatherlink.com 1.10,2013-03-20 16:03:00,
2013-03-20 12:18:00,37.3,26.0,29.76,SE,125,20.0,20.0,64,0.00,,,0.02,weatherlink.com 1.10,2013-03-20 16:18:00,
2013-03-20 12:33:00,37.6,25.0,29.75,ESE,111,7.0,17.0,62,0.00,,,0.02,weatherlink.com 1.10,2013-03-20 16:33:00,
2013-03-20 12:48:00,38.1,25.0,29.75,SE,143,9.0,19.0,59,0.00,,,0.02,weatherlink.com 1.10,2013-03-20 16:48:00,
2013-03-20 13:03:00,38.6,25.0,29.75,East,88,8.0,22.0,58,0.00,,,0.02,weatherlink.com 1.10,2013-03-20 17:03:00,
2013-03-20 13:18:00,38.3,25.0,29.75,ESE,109,13.0,17.0,59,0.00,,,0.02,weatherlink.com 1.10,2013-03-20 17:18:00,
2013-03-20 13:32:00,38.4,24.0,29.75,SSE,155,11.0,15.0,56,0.00,,,0.02,weatherlink.com 1.10,2013-03-20 17:32:00,
2013-03-20 13:48:00,38.2,24.0,29.75,SSE,150,4.0,14.0,58,0.00,,,0.02,weatherlink.com 1.10,2013-03-20 17:48:00,
2013-03-20 14:03:00,38.8,26.0,29.74,SSE,166,9.0,16.0,61,0.00,,,0.02,weatherlink.com 1.10,2013-03-20 18:03:00,
2013-03-20 14:18:00,39.5,26.0,29.74,NE,39,8.0,16.0,58,0.00,,,0.02,weatherlink.com 1.10,2013-03-20 18:18:00,
2013-03-20 14:33:00,39.4,26.0,29.74,SSE,154,17.0,17.0,59,0.00,,,0.02,weatherlink.com 1.10,2013-03-20 18:33:00,
2013-03-20 14:48:00,40.1,25.0,29.73,ESE,115,14.0,18.0,55,0.00,,,0.02,weatherlink.com 1.10,2013-03-20 18:48:00,
2013-03-20 15:03:00,40.0,25.0,29.73,SE,143,9.0,17.0,56,0.00,,,0.02,weatherlink.com 1.10,2013-03-20 19:03:00,
2013-03-20 15:18:00,40.1,26.0,29.73,ESE,113,7.0,14.0,57,0.00,,,0.02,weatherlink.com 1.10,2013-03-20 19:18:00,
2013-03-20 15:33:00,40.0,25.0,29.73,SE,124,9.0,18.0,55,0.00,,,0.02,weatherlink.com 1.10,2013-03-20 19:33:00,
2013-03-20 15:48:00,39.7,24.0,29.73,SSE,162,15.0,20.0,54,0.00,,,0.02,weatherlink.com 1.10,2013-03-20 19:48:00,
2013-03-20 16:03:00,39.5,25.0,29.74,ESE,112,14.0,19.0,57,0.00,,,0.02,weatherlink.com 1.10,2013-03-20 20:03:00,
2013-03-20 16:18:00,39.6,24.0,29.74,SE,144,7.0,17.0,55,0.00,,,0.02,weatherlink.com 1.10,2013-03-20 20:18:00,
2013-03-20 16:33:00,39.6,24.0,29.74,South,174,13.0,17.0,54,0.00,,,0.02,weatherlink.com 1.10,2013-03-20 20:33:00,
2013-03-20 16:47:00,39.8,26.0,29.74,SE,134,2.0,15.0,57,0.00,,,0.02,weatherlink.com 1.10,2013-03-20 20:47:00,
2013-03-20 17:03:00,40.7,26.0,29.74,ESE,121,10.0,11.0,56,0.00,,,0.02,weatherlink.com 1.10,2013-03-20 21:03:00,
2013-03-20 17:18:00,40.7,25.0,29.75,East,80,6.0,12.0,55,0.00,,,0.02,weatherlink.com 1.10,2013-03-20 21:18:00,
2013-03-20 17:33:00,40.0,26.0,29.75,ENE,74,4.0,11.0,57,0.00,,,0.02,weatherlink.com 1.10,2013-03-20 21:33:00,
2013-03-20 17:48:00,40.6,25.0,29.76,East,94,8.0,13.0,55,0.00,,,0.02,weatherlink.com 1.10,2013-03-20 21:48:00,
2013-03-20 18:03:00,40.3,26.0,29.76,East,80,10.0,20.0,57,0.00,,,0.02,weatherlink.com 1.10,2013-03-20 22:03:00,
2013-03-20 18:18:00,39.1,29.0,29.77,East,88,12.0,21.0,68,0.00,,,0.02,weatherlink.com 1.10,2013-03-20 22:18:00,
2013-03-20 18:33:00,38.6,29.0,29.77,NE,44,17.0,23.0,68,0.00,,,0.02,weatherlink.com 1.10,2013-03-20 22:33:00,
2013-03-20 18:48:00,38.6,29.0,29.79,ESE,103,14.0,20.0,69,0.00,,,0.02,weatherlink.com 1.10,2013-03-20 22:48:00,
2013-03-20 19:03:00,38.6,28.0,29.79,East,86,13.0,20.0,67,0.00,,,0.02,weatherlink.com 1.10,2013-03-20 23:03:00,
2013-03-20 19:18:00,38.6,29.0,29.80,ESE,114,15.0,19.0,68,0.00,,,0.02,weatherlink.com 1.10,2013-03-20 23:18:00,
2013-03-20 19:33:00,38.8,29.0,29.80,East,98,13.0,18.0,69,0.00,,,0.02,weatherlink.com 1.10,2013-03-20 23:33:00,
2013-03-20 19:48:00,38.7,30.0,29.81,ESE,105,8.0,13.0,71,0.00,,,0.02,weatherlink.com 1.10,2013-03-20 23:48:00,
2013-03-20 20:03:00,38.6,28.0,29.81,SE,135,7.0,11.0,66,0.00,,,0.02,weatherlink.com 1.10,2013-03-21 00:03:00,
2013-03-20 20:18:00,38.4,27.0,29.82,SE,142,3.0,9.0,63,0.00,,,0.02,weatherlink.com 1.10,2013-03-21 00:18:00,
2013-03-20 20:33:00,38.0,26.0,29.82,SE,145,5.0,10.0,63,0.00,,,0.02,weatherlink.com 1.10,2013-03-21 00:33:00,
2013-03-20 20:48:00,37.7,26.0,29.81,East,91,3.0,8.0,64,0.00,,,0.02,weatherlink.com 1.10,2013-03-21 00:48:00,
2013-03-20 21:03:00,37.4,26.0,29.82,East,82,6.0,7.0,64,0.00,,,0.02,weatherlink.com 1.10,2013-03-21 01:03:00,
2013-03-20 21:18:00,37.3,26.0,29.82,ESE,116,2.0,8.0,63,0.00,,,0.02,weatherlink.com 1.10,2013-03-21 01:18:00,
2013-03-20 21:33:00,37.1,26.0,29.82,ESE,122,4.0,6.0,65,0.00,,,0.02,weatherlink.com 1.10,2013-03-21 01:33:00,
2013-03-20 21:48:00,36.7,30.0,29.83,NE,56,6.0,8.0,76,0.00,,,0.02,weatherlink.com 1.10,2013-03-21 01:48:00,
2013-03-20 22:02:00,36.5,30.0,29.83,ENE,64,5.0,9.0,78,0.00,,,0.02,weatherlink.com 1.10,2013-03-21 02:02:00,
2013-03-20 22:18:00,36.6,30.0,29.83,East,96,8.0,11.0,78,0.00,,,0.02,weatherlink.com 1.10,2013-03-21 02:18:00,
2013-03-20 22:33:00,36.7,30.0,29.83,NE,56,7.0,11.0,77,0.00,,,0.02,weatherlink.com 1.10,2013-03-21 02:33:00,
2013-03-20 22:49:00,36.6,30.0,29.83,East,89,6.0,11.0,78,0.00,,,0.02,weatherlink.com 1.10,2013-03-21 02:49:00,
2013-03-20 23:04:00,36.5,30.0,29.82,East,90,7.0,10.0,76,0.00,,,0.02,weatherlink.com 1.10,2013-03-21 03:04:00,
2013-03-20 23:19:00,36.5,30.0,29.82,SE,138,5.0,10.0,78,0.00,,,0.02,weatherlink.com 1.10,2013-03-21 03:19:00,
2013-03-20 23:34:00,36.6,31.0,29.82,East,86,8.0,11.0,80,0.00,,,0.02,weatherlink.com 1.10,2013-03-21 03:34:00,
2013-03-20 23:49:00,36.6,31.0,29.82,ENE,77,7.0,9.0,80,0.00,,,0.02,weatherlink.com 1.10,2013-03-21 03:49:00,